This is the latest recevied weather packets stored in our database for station/object YD2APR-13. If no packets are shown the sender has not sent any weather packets the latest 10 day(s).
| Time | Temp. | Humidity | Pressure | Rain* | Wind** | Luminosity | Snow |
|---|---|---|---|---|---|---|---|
| 1777443405 | 32.78° C | 60% | 1013.7 hPa | - | - | - | - |
| 1777442805 | 32.78° C | 60% | 1013.8 hPa | - | - | - | - |
| 1777442205 | 32.22° C | 60% | 1013.9 hPa | - | - | - | - |
| 1777441604 | 32.22° C | 61% | 1014.1 hPa | - | - | - | - |
| 1777441005 | 32.78° C | 60% | 1014.3 hPa | - | - | - | - |
| 1777440405 | 32.22° C | 60% | 1014.6 hPa | - | - | - | - |
| 1777439805 | 32.22° C | 60% | 1014.8 hPa | - | - | - | - |
| 1777439204 | 32.22° C | 60% | 1015 hPa | - | - | - | - |
| 1777438605 | 31.67° C | 63% | 1015.2 hPa | - | - | - | - |
| 1777438005 | 31.67° C | 63% | 1015.3 hPa | - | - | - | - |
| 1777437405 | 31.67° C | 62% | 1015.4 hPa | - | - | - | - |
| 1777436804 | 31.67° C | 63% | 1015.6 hPa | - | - | - | - |
| 1777436204 | 31.67° C | 63% | 1015.8 hPa | - | - | - | - |
| 1777435604 | 31.67° C | 62% | 1016 hPa | - | - | - | - |
| 1777435004 | 31.67° C | 63% | 1016.2 hPa | - | - | - | - |
| 1777434404 | 31.11° C | 64% | 1016.3 hPa | - | - | - | - |
| 1777433804 | 31.11° C | 64% | 1016.6 hPa | - | - | - | - |
| 1777433204 | 30° C | 66% | 1016.8 hPa | - | - | - | - |
| 1777432604 | 30.56° C | 67% | 1016.9 hPa | - | - | - | - |
| 1777418481 | 28.33° C | 73% | 1015.9 hPa | - | - | - | - |
| 1777417881 | 28.33° C | 74% | 1015.7 hPa | - | - | - | - |
| 1777417281 | 27.78° C | 74% | 1015.6 hPa | - | - | - | - |
| 1777416681 | 27.78° C | 74% | 1015.4 hPa | - | - | - | - |
| 1777416081 | 27.78° C | 74% | 1015.2 hPa | - | - | - | - |
| 1777415481 | 28.33° C | 74% | 1015.1 hPa | - | - | - | - |
* Rain since midnight (hover to see other rain measurements)
** Current wind speed in m/s (hover to see current wind gust speed)